sensor_id;sensor_type;location;lat;lon;timestamp;temperature;humidity
63407;SHT31;49543;45.892;10.838;2023-01-06T16:40:17;9.36;81.70
63407;SHT31;49543;45.892;10.838;2023-01-06T17:06:18;9.19;82.42
63407;SHT31;49543;45.892;10.838;2023-01-06T17:08:44;9.19;82.45
63407;SHT31;49543;45.892;10.838;2023-01-06T17:11:21;9.18;82.31
63407;SHT31;49543;45.892;10.838;2023-01-06T17:14:02;9.15;82.48
63407;SHT31;49543;45.892;10.838;2023-01-06T17:16:35;9.12;82.54
63407;SHT31;49543;45.892;10.838;2023-01-06T17:19:14;9.14;82.71
63407;SHT31;49543;45.892;10.838;2023-01-06T17:21:43;9.05;82.75
63407;SHT31;49543;45.892;10.838;2023-01-06T17:26:48;9.01;82.90
63407;SHT31;49543;45.892;10.838;2023-01-06T17:29:17;9.03;82.97
63407;SHT31;49543;45.892;10.838;2023-01-06T17:31:44;9.01;83.00
63407;SHT31;49543;45.892;10.838;2023-01-06T17:34:21;8.96;83.09
63407;SHT31;49543;45.892;10.838;2023-01-06T17:36:52;8.94;83.08
63407;SHT31;49543;45.892;10.838;2023-01-06T17:39:38;8.96;82.88
63407;SHT31;49543;45.892;10.838;2023-01-06T19:09:24;8.56;84.75
63407;SHT31;49543;45.892;10.838;2023-01-06T19:14:39;8.43;84.92
63407;SHT31;49543;45.892;10.838;2023-01-06T19:17:32;8.48;85.02
63407;SHT31;49543;45.892;10.838;2023-01-06T19:20:37;8.50;84.97
63407;SHT31;49543;45.892;10.838;2023-01-06T19:23:21;8.50;85.11
63407;SHT31;49543;45.892;10.838;2023-01-06T19:25:47;8.49;85.20
63407;SHT31;49543;45.892;10.838;2023-01-06T19:28:21;8.53;85.45
63407;SHT31;49543;45.892;10.838;2023-01-06T19:30:49;8.55;85.55
63407;SHT31;49543;45.892;10.838;2023-01-06T19:35:41;8.53;85.99
63407;SHT31;49543;45.892;10.838;2023-01-06T19:38:28;8.59;85.74
63407;SHT31;49543;45.892;10.838;2023-01-06T19:40:56;8.64;85.65
63407;SHT31;49543;45.892;10.838;2023-01-06T19:43:27;8.67;85.28
63407;SHT31;49543;45.892;10.838;2023-01-06T19:45:53;8.69;85.16
63407;SHT31;49543;45.892;10.838;2023-01-06T19:50:47;8.74;85.44
63407;SHT31;49543;45.892;10.838;2023-01-06T19:53:37;8.74;85.38
63407;SHT31;49543;45.892;10.838;2023-01-06T19:56:33;8.76;85.48
63407;SHT31;49543;45.892;10.838;2023-01-06T19:59:02;8.70;85.51
63407;SHT31;49543;45.892;10.838;2023-01-06T20:01:30;8.74;85.59
63407;SHT31;49543;45.892;10.838;2023-01-06T20:03:56;8.74;85.73
63407;SHT31;49543;45.892;10.838;2023-01-06T20:06:22;8.80;85.75
63407;SHT31;49543;45.892;10.838;2023-01-06T20:08:49;8.76;85.93
63407;SHT31;49543;45.892;10.838;2023-01-06T20:11:18;8.73;86.04
63407;SHT31;49543;45.892;10.838;2023-01-06T20:13:44;8.76;86.12
63407;SHT31;49543;45.892;10.838;2023-01-06T20:16:09;8.76;86.15
63407;SHT31;49543;45.892;10.838;2023-01-06T20:18:35;8.77;86.03
63407;SHT31;49543;45.892;10.838;2023-01-06T20:21:01;8.79;85.88
63407;SHT31;49543;45.892;10.838;2023-01-06T20:23:29;8.81;85.91
63407;SHT31;49543;45.892;10.838;2023-01-06T20:25:54;8.79;86.01
63407;SHT31;49543;45.892;10.838;2023-01-06T20:28:23;8.81;85.96
63407;SHT31;49543;45.892;10.838;2023-01-06T20:30:48;8.83;85.86
63407;SHT31;49543;45.892;10.838;2023-01-06T20:33:14;8.84;85.87
63407;SHT31;49543;45.892;10.838;2023-01-06T20:35:40;8.84;85.87
63407;SHT31;49543;45.892;10.838;2023-01-06T20:38:05;8.84;86.04
63407;SHT31;49543;45.892;10.838;2023-01-06T20:40:31;8.80;86.14
63407;SHT31;49543;45.892;10.838;2023-01-06T20:42:57;8.83;86.01
63407;SHT31;49543;45.892;10.838;2023-01-06T20:45:22;8.83;86.03
63407;SHT31;49543;45.892;10.838;2023-01-06T20:47:48;8.80;85.86
63407;SHT31;49543;45.892;10.838;2023-01-06T20:50:13;8.84;85.65
63407;SHT31;49543;45.892;10.838;2023-01-06T20:52:40;8.87;85.46
63407;SHT31;49543;45.892;10.838;2023-01-06T20:55:07;8.85;85.34
63407;SHT31;49543;45.892;10.838;2023-01-06T20:57:32;8.87;85.45
63407;SHT31;49543;45.892;10.838;2023-01-06T20:59:58;8.91;85.57
63407;SHT31;49543;45.892;10.838;2023-01-06T21:02:23;8.90;85.58
63407;SHT31;49543;45.892;10.838;2023-01-06T21:04:49;8.90;85.51
63407;SHT31;49543;45.892;10.838;2023-01-06T21:07:14;8.91;85.27
63407;SHT31;49543;45.892;10.838;2023-01-06T21:09:41;8.88;85.54
63407;SHT31;49543;45.892;10.838;2023-01-06T21:12:06;8.84;85.79
63407;SHT31;49543;45.892;10.838;2023-01-06T21:14:32;8.85;85.81
63407;SHT31;49543;45.892;10.838;2023-01-06T21:16:58;8.87;85.78
63407;SHT31;49543;45.892;10.838;2023-01-06T21:19:24;8.88;85.90
63407;SHT31;49543;45.892;10.838;2023-01-06T21:21:50;8.84;85.95
63407;SHT31;49543;45.892;10.838;2023-01-06T21:24:15;8.87;86.06
63407;SHT31;49543;45.892;10.838;2023-01-06T21:26:40;8.88;85.91
63407;SHT31;49543;45.892;10.838;2023-01-06T21:29:06;8.85;85.93
63407;SHT31;49543;45.892;10.838;2023-01-06T21:31:31;8.91;85.97
63407;SHT31;49543;45.892;10.838;2023-01-06T21:33:57;8.96;85.87
63407;SHT31;49543;45.892;10.838;2023-01-06T21:36:23;8.96;85.77
63407;SHT31;49543;45.892;10.838;2023-01-06T21:38:48;8.94;85.78
63407;SHT31;49543;45.892;10.838;2023-01-06T21:41:14;8.94;85.82
63407;SHT31;49543;45.892;10.838;2023-01-06T21:43:57;8.93;86.01
63407;SHT31;49543;45.892;10.838;2023-01-06T21:46:23;8.96;86.03
63407;SHT31;49543;45.892;10.838;2023-01-06T21:48:48;8.93;86.09
63407;SHT31;49543;45.892;10.838;2023-01-06T21:51:14;8.96;86.09
63407;SHT31;49543;45.892;10.838;2023-01-06T21:53:40;8.96;86.07
63407;SHT31;49543;45.892;10.838;2023-01-06T21:56:06;8.96;85.98
63407;SHT31;49543;45.892;10.838;2023-01-06T21:58:33;8.93;86.16
63407;SHT31;49543;45.892;10.838;2023-01-06T22:00:58;8.96;86.29
63407;SHT31;49543;45.892;10.838;2023-01-06T22:03:24;8.96;86.28
63407;SHT31;49543;45.892;10.838;2023-01-06T22:05:49;8.93;86.26
63407;SHT31;49543;45.892;10.838;2023-01-06T22:08:16;8.93;86.25
63407;SHT31;49543;45.892;10.838;2023-01-06T22:10:42;8.93;86.34
63407;SHT31;49543;45.892;10.838;2023-01-06T22:13:11;8.88;86.43
63407;SHT31;49543;45.892;10.838;2023-01-06T22:15:38;8.91;86.41
63407;SHT31;49543;45.892;10.838;2023-01-06T22:18:05;8.90;86.54
63407;SHT31;49543;45.892;10.838;2023-01-06T22:20:31;8.91;86.44
63407;SHT31;49543;45.892;10.838;2023-01-06T22:23:03;8.90;86.34
63407;SHT31;49543;45.892;10.838;2023-01-06T22:25:29;8.90;86.43
63407;SHT31;49543;45.892;10.838;2023-01-06T22:27:55;8.85;86.52
63407;SHT31;49543;45.892;10.838;2023-01-06T22:30:23;8.90;86.54
63407;SHT31;49543;45.892;10.838;2023-01-06T22:32:49;8.90;86.54
63407;SHT31;49543;45.892;10.838;2023-01-06T22:35:16;8.87;86.51
63407;SHT31;49543;45.892;10.838;2023-01-06T22:37:42;8.88;86.44
63407;SHT31;49543;45.892;10.838;2023-01-06T22:40:08;8.91;86.44
63407;SHT31;49543;45.892;10.838;2023-01-06T22:42:34;8.90;86.41
63407;SHT31;49543;45.892;10.838;2023-01-06T22:44:59;8.91;86.36
